Aviation Digital Data Service (ADDS)

Output produced by METARs form (1034 UTC 17 June 2019)
found at http://www.aviationweather.gov/metar/data/
 
Forecast for: AMD
Text: TAF AMD NZQN 170531Z 1705/1712 18010KT 9999 -SHRA SCT030 BKN060
Forecast period: 0500 to 1200 UTC 17 June 2019
Forecast type: FROM: standard forecast or significant change
Winds: from the S (180 degrees) at 12 MPH (10 knots; 5.1 m/s)
Visibility: 6 or more miles 10+ km)
Ceiling: 6000 feet AGL
Clouds: scattered clouds at 3000 feet AGL
broken clouds at 6000 feet AGL
Weather: -SHRA  (light rain showers)
Text: PROB40
Forecast period: 0500 to 0600 UTC 17 June 2019
Forecast type: TEMPORARY: The following changes expected for less than half the time period
Visibility: 4 miles (7 km)
Ceiling: unknown
Clouds: missing
Weather: SHRA SHSN  (rain showers, snow showers)